sensor_id;sensor_type;location;lat;lon;timestamp;P1;durP1;ratioP1;P2;durP2;ratioP2
40955;SDS011;26687;48.254;11.454;2024-02-21T00:02:38;3.90;;;2.13;;
40955;SDS011;26687;48.254;11.454;2024-02-21T00:05:38;5.25;;;2.63;;
40955;SDS011;26687;48.254;11.454;2024-02-21T00:08:38;3.55;;;2.13;;
40955;SDS011;26687;48.254;11.454;2024-02-21T00:11:39;4.87;;;2.20;;
40955;SDS011;26687;48.254;11.454;2024-02-21T00:14:39;4.68;;;1.83;;
40955;SDS011;26687;48.254;11.454;2024-02-21T00:17:40;4.60;;;1.80;;
40955;SDS011;26687;48.254;11.454;2024-02-21T00:20:40;4.28;;;1.80;;
40955;SDS011;26687;48.254;11.454;2024-02-21T00:23:41;3.85;;;2.00;;
40955;SDS011;26687;48.254;11.454;2024-02-21T00:26:41;4.45;;;1.80;;
40955;SDS011;26687;48.254;11.454;2024-02-21T00:29:41;4.88;;;1.73;;
40955;SDS011;26687;48.254;11.454;2024-02-21T00:32:41;4.35;;;2.00;;
40955;SDS011;26687;48.254;11.454;2024-02-21T00:35:41;3.60;;;2.10;;
40955;SDS011;26687;48.254;11.454;2024-02-21T00:38:42;4.32;;;2.28;;
40955;SDS011;26687;48.254;11.454;2024-02-21T00:41:42;4.10;;;1.90;;
40955;SDS011;26687;48.254;11.454;2024-02-21T00:44:42;4.05;;;2.10;;
40955;SDS011;26687;48.254;11.454;2024-02-21T00:47:42;3.80;;;1.88;;
40955;SDS011;26687;48.254;11.454;2024-02-21T00:50:42;3.20;;;2.10;;
40955;SDS011;26687;48.254;11.454;2024-02-21T00:53:42;3.97;;;2.05;;
40955;SDS011;26687;48.254;11.454;2024-02-21T00:56:43;4.10;;;1.70;;
40955;SDS011;26687;48.254;11.454;2024-02-21T00:59:43;4.33;;;1.67;;
40955;SDS011;26687;48.254;11.454;2024-02-21T01:02:43;3.15;;;1.73;;
40955;SDS011;26687;48.254;11.454;2024-02-21T01:05:43;4.28;;;2.15;;
40955;SDS011;26687;48.254;11.454;2024-02-21T01:08:43;3.40;;;1.90;;
40955;SDS011;26687;48.254;11.454;2024-02-21T01:11:43;3.92;;;1.80;;
40955;SDS011;26687;48.254;11.454;2024-02-21T01:14:44;2.50;;;1.67;;
40955;SDS011;26687;48.254;11.454;2024-02-21T01:17:46;2.97;;;1.83;;
40955;SDS011;26687;48.254;11.454;2024-02-21T01:20:46;3.67;;;1.80;;
40955;SDS011;26687;48.254;11.454;2024-02-21T01:23:46;5.97;;;2.47;;
40955;SDS011;26687;48.254;11.454;2024-02-21T01:26:46;11.30;;;7.10;;
40955;SDS011;26687;48.254;11.454;2024-02-21T01:29:46;12.85;;;8.35;;
40955;SDS011;26687;48.254;11.454;2024-02-21T01:32:49;8.15;;;4.80;;
40955;SDS011;26687;48.254;11.454;2024-02-21T01:35:49;5.47;;;2.38;;
40955;SDS011;26687;48.254;11.454;2024-02-21T01:38:50;2.80;;;1.70;;
40955;SDS011;26687;48.254;11.454;2024-02-21T01:41:50;3.97;;;1.73;;
40955;SDS011;26687;48.254;11.454;2024-02-21T01:44:50;3.58;;;1.60;;
40955;SDS011;26687;48.254;11.454;2024-02-21T01:47:51;2.80;;;1.40;;
40955;SDS011;26687;48.254;11.454;2024-02-21T01:50:51;3.95;;;1.40;;
40955;SDS011;26687;48.254;11.454;2024-02-21T01:53:52;2.78;;;1.30;;
40955;SDS011;26687;48.254;11.454;2024-02-21T01:56:53;3.30;;;1.52;;
40955;SDS011;26687;48.254;11.454;2024-02-21T01:59:53;3.65;;;1.55;;
40955;SDS011;26687;48.254;11.454;2024-02-21T02:02:53;3.72;;;1.50;;
40955;SDS011;26687;48.254;11.454;2024-02-21T02:05:54;3.55;;;1.60;;
40955;SDS011;26687;48.254;11.454;2024-02-21T02:08:54;3.38;;;1.58;;
40955;SDS011;26687;48.254;11.454;2024-02-21T02:11:54;2.33;;;1.52;;
40955;SDS011;26687;48.254;11.454;2024-02-21T02:14:58;3.10;;;1.43;;
40955;SDS011;26687;48.254;11.454;2024-02-21T02:17:58;2.80;;;1.20;;
40955;SDS011;26687;48.254;11.454;2024-02-21T02:20:59;4.05;;;1.30;;
40955;SDS011;26687;48.254;11.454;2024-02-21T02:23:59;2.85;;;1.00;;
40955;SDS011;26687;48.254;11.454;2024-02-21T02:26:59;2.70;;;1.27;;
40955;SDS011;26687;48.254;11.454;2024-02-21T02:29:59;4.03;;;1.50;;
40955;SDS011;26687;48.254;11.454;2024-02-21T02:32:59;3.13;;;1.00;;
40955;SDS011;26687;48.254;11.454;2024-02-21T02:36:00;4.35;;;1.63;;
40955;SDS011;26687;48.254;11.454;2024-02-21T02:39:00;3.47;;;1.30;;
40955;SDS011;26687;48.254;11.454;2024-02-21T02:42:01;2.13;;;1.10;;
40955;SDS011;26687;48.254;11.454;2024-02-21T02:45:01;2.47;;;1.15;;
40955;SDS011;26687;48.254;11.454;2024-02-21T02:48:02;2.03;;;1.10;;
40955;SDS011;26687;48.254;11.454;2024-02-21T02:51:02;2.72;;;1.20;;
40955;SDS011;26687;48.254;11.454;2024-02-21T02:54:02;2.10;;;1.00;;
40955;SDS011;26687;48.254;11.454;2024-02-21T02:57:03;2.22;;;1.25;;
40955;SDS011;26687;48.254;11.454;2024-02-21T03:00:05;2.58;;;1.10;;
40955;SDS011;26687;48.254;11.454;2024-02-21T03:03:06;2.97;;;1.27;;
40955;SDS011;26687;48.254;11.454;2024-02-21T03:06:08;3.13;;;1.02;;
40955;SDS011;26687;48.254;11.454;2024-02-21T03:09:08;2.90;;;1.30;;
40955;SDS011;26687;48.254;11.454;2024-02-21T03:12:08;2.50;;;1.20;;
40955;SDS011;26687;48.254;11.454;2024-02-21T03:15:09;3.13;;;1.00;;
40955;SDS011;26687;48.254;11.454;2024-02-21T03:18:09;2.28;;;1.15;;
40955;SDS011;26687;48.254;11.454;2024-02-21T03:21:09;3.03;;;0.90;;
40955;SDS011;26687;48.254;11.454;2024-02-21T03:24:09;3.00;;;1.42;;
40955;SDS011;26687;48.254;11.454;2024-02-21T03:27:10;3.45;;;1.20;;
40955;SDS011;26687;48.254;11.454;2024-02-21T03:30:10;1.70;;;1.00;;
40955;SDS011;26687;48.254;11.454;2024-02-21T03:33:10;2.60;;;1.13;;
40955;SDS011;26687;48.254;11.454;2024-02-21T03:36:14;2.53;;;1.00;;
40955;SDS011;26687;48.254;11.454;2024-02-21T03:39:15;3.90;;;0.98;;
40955;SDS011;26687;48.254;11.454;2024-02-21T03:42:15;3.40;;;1.40;;
40955;SDS011;26687;48.254;11.454;2024-02-21T03:45:15;2.55;;;1.20;;
40955;SDS011;26687;48.254;11.454;2024-02-21T03:48:15;2.53;;;1.10;;
40955;SDS011;26687;48.254;11.454;2024-02-21T03:51:15;2.67;;;0.82;;
40955;SDS011;26687;48.254;11.454;2024-02-21T03:54:16;2.27;;;1.00;;
40955;SDS011;26687;48.254;11.454;2024-02-21T03:57:16;2.55;;;1.02;;
40955;SDS011;26687;48.254;11.454;2024-02-21T04:00:17;1.92;;;0.75;;
40955;SDS011;26687;48.254;11.454;2024-02-21T04:03:17;2.10;;;1.20;;
40955;SDS011;26687;48.254;11.454;2024-02-21T04:06:17;2.88;;;1.00;;
40955;SDS011;26687;48.254;11.454;2024-02-21T04:09:18;2.78;;;1.10;;
40955;SDS011;26687;48.254;11.454;2024-02-21T04:12:19;3.27;;;0.83;;
40955;SDS011;26687;48.254;11.454;2024-02-21T04:15:19;2.08;;;0.95;;
40955;SDS011;26687;48.254;11.454;2024-02-21T04:18:19;1.92;;;1.00;;
40955;SDS011;26687;48.254;11.454;2024-02-21T04:21:19;3.30;;;1.17;;
40955;SDS011;26687;48.254;11.454;2024-02-21T04:24:19;2.58;;;1.02;;
40955;SDS011;26687;48.254;11.454;2024-02-21T04:27:20;2.08;;;0.93;;
40955;SDS011;26687;48.254;11.454;2024-02-21T04:30:20;1.50;;;0.83;;
40955;SDS011;26687;48.254;11.454;2024-02-21T04:33:20;1.80;;;0.83;;
40955;SDS011;26687;48.254;11.454;2024-02-21T04:36:20;1.55;;;0.80;;
40955;SDS011;26687;48.254;11.454;2024-02-21T04:39:21;1.80;;;0.70;;
40955;SDS011;26687;48.254;11.454;2024-02-21T04:42:21;2.05;;;0.70;;
40955;SDS011;26687;48.254;11.454;2024-02-21T04:45:21;2.67;;;1.00;;
40955;SDS011;26687;48.254;11.454;2024-02-21T04:48:21;3.33;;;1.10;;
40955;SDS011;26687;48.254;11.454;2024-02-21T04:51:22;1.77;;;0.90;;
40955;SDS011;26687;48.254;11.454;2024-02-21T04:54:23;2.38;;;0.90;;
40955;SDS011;26687;48.254;11.454;2024-02-21T04:57:23;1.63;;;0.93;;
40955;SDS011;26687;48.254;11.454;2024-02-21T05:00:23;1.88;;;0.70;;
40955;SDS011;26687;48.254;11.454;2024-02-21T05:03:23;4.50;;;0.88;;
40955;SDS011;26687;48.254;11.454;2024-02-21T05:06:23;1.57;;;0.80;;
40955;SDS011;26687;48.254;11.454;2024-02-21T05:09:24;2.65;;;0.98;;
40955;SDS011;26687;48.254;11.454;2024-02-21T05:12:24;1.63;;;0.90;;
40955;SDS011;26687;48.254;11.454;2024-02-21T05:15:24;1.10;;;0.77;;
40955;SDS011;26687;48.254;11.454;2024-02-21T05:18:24;2.20;;;0.98;;
40955;SDS011;26687;48.254;11.454;2024-02-21T05:21:24;2.17;;;0.90;;
40955;SDS011;26687;48.254;11.454;2024-02-21T05:24:24;1.27;;;0.70;;
40955;SDS011;26687;48.254;11.454;2024-02-21T05:27:25;1.45;;;0.80;;
40955;SDS011;26687;48.254;11.454;2024-02-21T05:30:25;2.35;;;0.60;;
40955;SDS011;26687;48.254;11.454;2024-02-21T05:33:25;4.40;;;1.75;;
40955;SDS011;26687;48.254;11.454;2024-02-21T05:36:25;7.40;;;5.65;;
40955;SDS011;26687;48.254;11.454;2024-02-21T05:39:28;6.43;;;4.43;;
40955;SDS011;26687;48.254;11.454;2024-02-21T05:42:29;4.10;;;2.40;;
40955;SDS011;26687;48.254;11.454;2024-02-21T05:45:29;4.57;;;2.42;;
40955;SDS011;26687;48.254;11.454;2024-02-21T05:48:29;3.15;;;1.70;;
40955;SDS011;26687;48.254;11.454;2024-02-21T05:51:32;2.25;;;1.08;;
40955;SDS011;26687;48.254;11.454;2024-02-21T05:54:33;3.25;;;1.10;;
40955;SDS011;26687;48.254;11.454;2024-02-21T05:57:33;2.47;;;0.87;;
40955;SDS011;26687;48.254;11.454;2024-02-21T06:00:33;2.03;;;0.70;;
40955;SDS011;26687;48.254;11.454;2024-02-21T06:03:33;1.90;;;0.80;;
40955;SDS011;26687;48.254;11.454;2024-02-21T06:06:34;1.73;;;0.70;;
40955;SDS011;26687;48.254;11.454;2024-02-21T06:09:34;1.30;;;1.00;;
40955;SDS011;26687;48.254;11.454;2024-02-21T06:12:34;1.70;;;0.90;;
40955;SDS011;26687;48.254;11.454;2024-02-21T06:15:34;2.33;;;1.20;;
40955;SDS011;26687;48.254;11.454;2024-02-21T06:18:35;3.22;;;1.00;;
40955;SDS011;26687;48.254;11.454;2024-02-21T06:21:36;4.95;;;0.80;;
40955;SDS011;26687;48.254;11.454;2024-02-21T06:24:36;2.08;;;0.85;;
40955;SDS011;26687;48.254;11.454;2024-02-21T06:27:36;2.22;;;0.65;;
40955;SDS011;26687;48.254;11.454;2024-02-21T06:30:36;1.40;;;0.60;;
40955;SDS011;26687;48.254;11.454;2024-02-21T06:33:36;1.40;;;0.82;;
40955;SDS011;26687;48.254;11.454;2024-02-21T06:36:37;1.45;;;0.73;;
40955;SDS011;26687;48.254;11.454;2024-02-21T06:39:37;1.30;;;0.70;;
40955;SDS011;26687;48.254;11.454;2024-02-21T06:42:37;1.00;;;0.90;;
40955;SDS011;26687;48.254;11.454;2024-02-21T06:45:38;1.83;;;0.80;;
40955;SDS011;26687;48.254;11.454;2024-02-21T06:48:38;1.38;;;0.70;;
40955;SDS011;26687;48.254;11.454;2024-02-21T06:51:38;1.23;;;0.50;;
40955;SDS011;26687;48.254;11.454;2024-02-21T06:54:39;1.38;;;0.80;;
40955;SDS011;26687;48.254;11.454;2024-02-21T06:57:39;0.70;;;0.60;;
40955;SDS011;26687;48.254;11.454;2024-02-21T07:00:40;2.33;;;0.60;;
40955;SDS011;26687;48.254;11.454;2024-02-21T07:03:40;0.88;;;0.50;;
40955;SDS011;26687;48.254;11.454;2024-02-21T07:06:40;0.97;;;0.50;;
40955;SDS011;26687;48.254;11.454;2024-02-21T07:09:40;2.05;;;0.65;;
40955;SDS011;26687;48.254;11.454;2024-02-21T07:12:41;0.88;;;0.47;;
40955;SDS011;26687;48.254;11.454;2024-02-21T07:15:43;1.95;;;0.60;;
40955;SDS011;26687;48.254;11.454;2024-02-21T07:18:43;1.35;;;0.60;;
40955;SDS011;26687;48.254;11.454;2024-02-21T07:21:43;1.40;;;0.50;;
40955;SDS011;26687;48.254;11.454;2024-02-21T07:24:43;1.80;;;0.60;;
40955;SDS011;26687;48.254;11.454;2024-02-21T07:27:44;2.33;;;0.60;;
40955;SDS011;26687;48.254;11.454;2024-02-21T07:30:44;2.05;;;0.73;;
40955;SDS011;26687;48.254;11.454;2024-02-21T07:33:44;1.35;;;0.80;;
40955;SDS011;26687;48.254;11.454;2024-02-21T07:36:44;2.97;;;0.80;;
40955;SDS011;26687;48.254;11.454;2024-02-21T07:39:45;0.90;;;0.60;;
40955;SDS011;26687;48.254;11.454;2024-02-21T07:42:45;1.20;;;0.63;;
40955;SDS011;26687;48.254;11.454;2024-02-21T07:45:45;1.52;;;0.52;;
40955;SDS011;26687;48.254;11.454;2024-02-21T07:48:46;1.48;;;0.63;;
40955;SDS011;26687;48.254;11.454;2024-02-21T07:51:46;0.57;;;0.40;;
40955;SDS011;26687;48.254;11.454;2024-02-21T07:54:46;0.60;;;0.40;;
40955;SDS011;26687;48.254;11.454;2024-02-21T07:57:47;1.10;;;0.40;;
40955;SDS011;26687;48.254;11.454;2024-02-21T08:00:47;1.90;;;0.65;;
40955;SDS011;26687;48.254;11.454;2024-02-21T08:03:48;3.08;;;0.60;;
40955;SDS011;26687;48.254;11.454;2024-02-21T08:06:51;2.63;;;0.77;;
40955;SDS011;26687;48.254;11.454;2024-02-21T08:09:52;0.52;;;0.50;;
40955;SDS011;26687;48.254;11.454;2024-02-21T08:12:53;4.10;;;0.50;;
40955;SDS011;26687;48.254;11.454;2024-02-21T08:15:53;3.90;;;1.10;;
40955;SDS011;26687;48.254;11.454;2024-02-21T08:18:53;3.03;;;0.73;;
40955;SDS011;26687;48.254;11.454;2024-02-21T08:21:53;2.75;;;0.90;;
40955;SDS011;26687;48.254;11.454;2024-02-21T08:24:53;2.63;;;0.98;;
40955;SDS011;26687;48.254;11.454;2024-02-21T08:27:57;3.67;;;0.90;;
40955;SDS011;26687;48.254;11.454;2024-02-21T08:30:57;1.33;;;0.80;;
40955;SDS011;26687;48.254;11.454;2024-02-21T08:33:58;1.25;;;0.68;;
40955;SDS011;26687;48.254;11.454;2024-02-21T08:37:04;0.60;;;0.47;;
40955;SDS011;26687;48.254;11.454;2024-02-21T08:40:04;0.52;;;0.50;;
40955;SDS011;26687;48.254;11.454;2024-02-21T08:43:08;0.95;;;0.50;;
40955;SDS011;26687;48.254;11.454;2024-02-21T08:46:08;1.73;;;0.50;;
40955;SDS011;26687;48.254;11.454;2024-02-21T08:49:10;1.50;;;0.63;;
40955;SDS011;26687;48.254;11.454;2024-02-21T08:52:10;0.65;;;0.47;;
40955;SDS011;26687;48.254;11.454;2024-02-21T08:55:10;0.82;;;0.50;;
40955;SDS011;26687;48.254;11.454;2024-02-21T08:58:10;0.80;;;0.27;;
40955;SDS011;26687;48.254;11.454;2024-02-21T09:01:10;1.80;;;0.50;;
40955;SDS011;26687;48.254;11.454;2024-02-21T09:04:10;0.52;;;0.30;;
40955;SDS011;26687;48.254;11.454;2024-02-21T09:07:11;0.57;;;0.40;;
40955;SDS011;26687;48.254;11.454;2024-02-21T09:10:11;1.10;;;0.60;;
40955;SDS011;26687;48.254;11.454;2024-02-21T09:13:11;0.52;;;0.50;;
40955;SDS011;26687;48.254;11.454;2024-02-21T09:16:11;1.97;;;0.40;;
40955;SDS011;26687;48.254;11.454;2024-02-21T09:19:12;1.05;;;0.43;;
40955;SDS011;26687;48.254;11.454;2024-02-21T09:22:12;0.65;;;0.40;;
40955;SDS011;26687;48.254;11.454;2024-02-21T09:25:12;1.13;;;0.40;;
40955;SDS011;26687;48.254;11.454;2024-02-21T09:28:12;1.97;;;0.57;;
40955;SDS011;26687;48.254;11.454;2024-02-21T09:31:13;0.52;;;0.40;;
40955;SDS011;26687;48.254;11.454;2024-02-21T09:34:13;1.43;;;0.50;;
40955;SDS011;26687;48.254;11.454;2024-02-21T09:37:13;1.55;;;0.50;;
40955;SDS011;26687;48.254;11.454;2024-02-21T09:40:14;1.05;;;0.40;;
40955;SDS011;26687;48.254;11.454;2024-02-21T09:43:16;1.98;;;0.50;;
40955;SDS011;26687;48.254;11.454;2024-02-21T09:46:18;1.05;;;0.43;;
40955;SDS011;26687;48.254;11.454;2024-02-21T09:52:21;0.98;;;0.60;;
40955;SDS011;26687;48.254;11.454;2024-02-21T09:55:22;0.40;;;0.40;;
40955;SDS011;26687;48.254;11.454;2024-02-21T09:58:23;1.02;;;0.50;;
40955;SDS011;26687;48.254;11.454;2024-02-21T10:01:24;0.50;;;0.30;;
40955;SDS011;26687;48.254;11.454;2024-02-21T10:04:24;1.43;;;0.20;;
40955;SDS011;26687;48.254;11.454;2024-02-21T10:07:24;0.53;;;0.30;;
40955;SDS011;26687;48.254;11.454;2024-02-21T10:10:25;0.55;;;0.20;;
40955;SDS011;26687;48.254;11.454;2024-02-21T10:13:27;0.52;;;0.20;;
40955;SDS011;26687;48.254;11.454;2024-02-21T10:16:28;0.68;;;0.40;;
40955;SDS011;26687;48.254;11.454;2024-02-21T10:19:28;0.40;;;0.22;;
40955;SDS011;26687;48.254;11.454;2024-02-21T10:22:28;1.20;;;0.43;;
40955;SDS011;26687;48.254;11.454;2024-02-21T10:25:31;0.55;;;0.20;;
40955;SDS011;26687;48.254;11.454;2024-02-21T10:28:31;0.87;;;0.30;;
40955;SDS011;26687;48.254;11.454;2024-02-21T10:31:32;0.67;;;0.30;;
40955;SDS011;26687;48.254;11.454;2024-02-21T10:34:33;1.15;;;0.28;;
40955;SDS011;26687;48.254;11.454;2024-02-21T10:37:33;1.27;;;0.25;;
40955;SDS011;26687;48.254;11.454;2024-02-21T10:40:34;1.50;;;0.30;;
40955;SDS011;26687;48.254;11.454;2024-02-21T10:43:38;0.70;;;0.40;;
40955;SDS011;26687;48.254;11.454;2024-02-21T10:46:39;0.63;;;0.20;;
40955;SDS011;26687;48.254;11.454;2024-02-21T10:49:40;1.70;;;0.25;;
40955;SDS011;26687;48.254;11.454;2024-02-21T10:53:01;0.40;;;0.15;;
40955;SDS011;26687;48.254;11.454;2024-02-21T10:59:13;1.58;;;0.25;;
40955;SDS011;26687;48.254;11.454;2024-02-21T11:02:14;0.65;;;0.25;;
40955;SDS011;26687;48.254;11.454;2024-02-21T11:05:15;0.82;;;0.30;;
40955;SDS011;26687;48.254;11.454;2024-02-21T11:08:16;0.50;;;0.20;;
40955;SDS011;26687;48.254;11.454;2024-02-21T11:11:16;0.28;;;0.15;;
40955;SDS011;26687;48.254;11.454;2024-02-21T11:14:20;0.93;;;0.20;;
40955;SDS011;26687;48.254;11.454;2024-02-21T11:17:20;1.05;;;0.20;;
40955;SDS011;26687;48.254;11.454;2024-02-21T11:20:31;0.60;;;0.20;;
40955;SDS011;26687;48.254;11.454;2024-02-21T11:23:32;0.77;;;0.20;;
40955;SDS011;26687;48.254;11.454;2024-02-21T11:26:32;0.70;;;0.30;;
40955;SDS011;26687;48.254;11.454;2024-02-21T11:29:32;0.87;;;0.30;;
40955;SDS011;26687;48.254;11.454;2024-02-21T11:32:32;0.50;;;0.20;;
40955;SDS011;26687;48.254;11.454;2024-02-21T11:35:33;0.27;;;0.13;;
40955;SDS011;26687;48.254;11.454;2024-02-21T11:38:33;0.40;;;0.10;;
40955;SDS011;26687;48.254;11.454;2024-02-21T11:41:34;0.43;;;0.15;;
40955;SDS011;26687;48.254;11.454;2024-02-21T11:44:34;0.63;;;0.25;;
40955;SDS011;26687;48.254;11.454;2024-02-21T11:47:35;2.22;;;0.20;;
40955;SDS011;26687;48.254;11.454;2024-02-21T11:50:38;0.47;;;0.22;;
40955;SDS011;26687;48.254;11.454;2024-02-21T11:53:39;0.28;;;0.20;;
40955;SDS011;26687;48.254;11.454;2024-02-21T11:56:39;2.72;;;0.40;;
40955;SDS011;26687;48.254;11.454;2024-02-21T11:59:40;0.28;;;0.20;;
40955;SDS011;26687;48.254;11.454;2024-02-21T12:02:40;0.30;;;0.20;;
40955;SDS011;26687;48.254;11.454;2024-02-21T12:05:41;0.60;;;0.13;;
40955;SDS011;26687;48.254;11.454;2024-02-21T12:08:42;0.45;;;0.20;;
40955;SDS011;26687;48.254;11.454;2024-02-21T12:11:43;0.90;;;0.40;;
40955;SDS011;26687;48.254;11.454;2024-02-21T12:14:44;0.20;;;0.20;;
40955;SDS011;26687;48.254;11.454;2024-02-21T12:17:44;0.75;;;0.28;;
40955;SDS011;26687;48.254;11.454;2024-02-21T12:20:47;1.27;;;0.30;;
40955;SDS011;26687;48.254;11.454;2024-02-21T12:23:47;0.88;;;0.32;;
40955;SDS011;26687;48.254;11.454;2024-02-21T12:26:48;0.38;;;0.20;;
40955;SDS011;26687;48.254;11.454;2024-02-21T12:29:48;1.63;;;0.25;;
40955;SDS011;26687;48.254;11.454;2024-02-21T12:32:48;1.77;;;0.20;;
40955;SDS011;26687;48.254;11.454;2024-02-21T12:35:48;1.00;;;0.20;;
40955;SDS011;26687;48.254;11.454;2024-02-21T12:38:49;0.73;;;0.28;;
40955;SDS011;26687;48.254;11.454;2024-02-21T12:41:49;0.37;;;0.10;;
40955;SDS011;26687;48.254;11.454;2024-02-21T12:44:49;0.60;;;0.30;;
40955;SDS011;26687;48.254;11.454;2024-02-21T12:47:50;0.57;;;0.32;;
40955;SDS011;26687;48.254;11.454;2024-02-21T12:50:50;0.22;;;0.10;;
40955;SDS011;26687;48.254;11.454;2024-02-21T12:53:53;0.77;;;0.25;;
40955;SDS011;26687;48.254;11.454;2024-02-21T12:56:53;0.10;;;0.00;;
40955;SDS011;26687;48.254;11.454;2024-02-21T12:59:54;0.50;;;0.20;;
40955;SDS011;26687;48.254;11.454;2024-02-21T13:02:54;0.52;;;0.30;;
40955;SDS011;26687;48.254;11.454;2024-02-21T13:05:54;0.40;;;0.10;;
40955;SDS011;26687;48.254;11.454;2024-02-21T13:09:01;1.45;;;0.17;;
40955;SDS011;26687;48.254;11.454;2024-02-21T13:12:03;0.35;;;0.20;;
40955;SDS011;26687;48.254;11.454;2024-02-21T13:15:04;0.55;;;0.30;;
40955;SDS011;26687;48.254;11.454;2024-02-21T13:18:04;1.65;;;0.20;;
40955;SDS011;26687;48.254;11.454;2024-02-21T13:21:05;0.30;;;0.20;;
40955;SDS011;26687;48.254;11.454;2024-02-21T13:24:06;0.43;;;0.25;;
40955;SDS011;26687;48.254;11.454;2024-02-21T13:27:06;0.77;;;0.20;;
40955;SDS011;26687;48.254;11.454;2024-02-21T13:30:06;0.40;;;0.20;;
40955;SDS011;26687;48.254;11.454;2024-02-21T13:33:08;0.70;;;0.10;;
40955;SDS011;26687;48.254;11.454;2024-02-21T13:36:10;0.20;;;0.10;;
40955;SDS011;26687;48.254;11.454;2024-02-21T13:39:10;0.45;;;0.20;;
40955;SDS011;26687;48.254;11.454;2024-02-21T13:42:15;0.25;;;0.10;;
40955;SDS011;26687;48.254;11.454;2024-02-21T13:45:15;0.40;;;0.20;;
40955;SDS011;26687;48.254;11.454;2024-02-21T13:48:15;0.47;;;0.20;;
40955;SDS011;26687;48.254;11.454;2024-02-21T13:51:15;2.47;;;0.30;;
40955;SDS011;26687;48.254;11.454;2024-02-21T13:54:16;0.20;;;0.10;;
40955;SDS011;26687;48.254;11.454;2024-02-21T13:57:19;0.10;;;0.10;;
40955;SDS011;26687;48.254;11.454;2024-02-21T14:00:19;0.20;;;0.10;;
40955;SDS011;26687;48.254;11.454;2024-02-21T14:03:20;0.40;;;0.20;;
40955;SDS011;26687;48.254;11.454;2024-02-21T14:06:20;1.13;;;0.20;;
40955;SDS011;26687;48.254;11.454;2024-02-21T14:09:20;0.68;;;0.10;;
40955;SDS011;26687;48.254;11.454;2024-02-21T14:12:20;0.40;;;0.10;;
40955;SDS011;26687;48.254;11.454;2024-02-21T14:15:21;0.10;;;0.10;;
40955;SDS011;26687;48.254;11.454;2024-02-21T14:18:21;0.40;;;0.10;;
40955;SDS011;26687;48.254;11.454;2024-02-21T14:21:22;2.77;;;0.20;;
40955;SDS011;26687;48.254;11.454;2024-02-21T14:24:22;0.13;;;0.10;;
40955;SDS011;26687;48.254;11.454;2024-02-21T14:27:22;0.10;;;0.00;;
40955;SDS011;26687;48.254;11.454;2024-02-21T14:30:23;0.40;;;0.15;;
40955;SDS011;26687;48.254;11.454;2024-02-21T14:33:23;0.22;;;0.10;;
40955;SDS011;26687;48.254;11.454;2024-02-21T14:36:24;0.05;;;0.05;;
40955;SDS011;26687;48.254;11.454;2024-02-21T14:39:24;1.58;;;0.20;;
40955;SDS011;26687;48.254;11.454;2024-02-21T14:42:24;0.43;;;0.30;;
40955;SDS011;26687;48.254;11.454;2024-02-21T14:45:25;0.17;;;0.10;;
40955;SDS011;26687;48.254;11.454;2024-02-21T14:48:25;0.45;;;0.28;;
40955;SDS011;26687;48.254;11.454;2024-02-21T14:51:28;0.85;;;0.20;;
40955;SDS011;26687;48.254;11.454;2024-02-21T14:54:28;0.43;;;0.20;;
40955;SDS011;26687;48.254;11.454;2024-02-21T14:57:28;0.53;;;0.30;;
40955;SDS011;26687;48.254;11.454;2024-02-21T15:00:29;0.52;;;0.30;;
40955;SDS011;26687;48.254;11.454;2024-02-21T15:03:32;0.40;;;0.20;;
40955;SDS011;26687;48.254;11.454;2024-02-21T15:06:32;0.37;;;0.20;;
40955;SDS011;26687;48.254;11.454;2024-02-21T15:09:32;0.60;;;0.40;;
40955;SDS011;26687;48.254;11.454;2024-02-21T15:12:32;0.57;;;0.22;;
40955;SDS011;26687;48.254;11.454;2024-02-21T15:15:32;0.30;;;0.20;;
40955;SDS011;26687;48.254;11.454;2024-02-21T15:18:33;0.20;;;0.20;;
40955;SDS011;26687;48.254;11.454;2024-02-21T15:21:33;1.35;;;0.30;;
40955;SDS011;26687;48.254;11.454;2024-02-21T15:24:33;0.20;;;0.20;;
40955;SDS011;26687;48.254;11.454;2024-02-21T15:27:33;0.40;;;0.10;;
40955;SDS011;26687;48.254;11.454;2024-02-21T15:30:35;0.45;;;0.20;;
40955;SDS011;26687;48.254;11.454;2024-02-21T15:33:36;1.43;;;0.20;;
40955;SDS011;26687;48.254;11.454;2024-02-21T15:36:36;0.30;;;0.20;;
40955;SDS011;26687;48.254;11.454;2024-02-21T15:39:36;0.30;;;0.20;;
40955;SDS011;26687;48.254;11.454;2024-02-21T15:42:36;0.60;;;0.30;;
40955;SDS011;26687;48.254;11.454;2024-02-21T15:45:36;1.57;;;0.60;;
40955;SDS011;26687;48.254;11.454;2024-02-21T15:48:39;3.13;;;0.50;;
40955;SDS011;26687;48.254;11.454;2024-02-21T15:51:39;0.77;;;0.40;;
40955;SDS011;26687;48.254;11.454;2024-02-21T15:54:42;0.82;;;0.30;;
40955;SDS011;26687;48.254;11.454;2024-02-21T15:57:42;0.88;;;0.50;;
40955;SDS011;26687;48.254;11.454;2024-02-21T16:00:42;1.75;;;0.40;;
40955;SDS011;26687;48.254;11.454;2024-02-21T16:03:43;1.08;;;0.50;;
40955;SDS011;26687;48.254;11.454;2024-02-21T16:06:43;0.50;;;0.40;;
40955;SDS011;26687;48.254;11.454;2024-02-21T16:09:46;0.90;;;0.47;;
40955;SDS011;26687;48.254;11.454;2024-02-21T16:12:47;0.82;;;0.40;;
40955;SDS011;26687;48.254;11.454;2024-02-21T16:15:50;0.50;;;0.30;;
40955;SDS011;26687;48.254;11.454;2024-02-21T16:18:51;0.57;;;0.40;;
40955;SDS011;26687;48.254;11.454;2024-02-21T16:21:51;1.23;;;0.50;;
40955;SDS011;26687;48.254;11.454;2024-02-21T16:24:51;1.70;;;0.40;;
40955;SDS011;26687;48.254;11.454;2024-02-21T16:27:53;1.83;;;0.63;;
40955;SDS011;26687;48.254;11.454;2024-02-21T16:30:53;2.40;;;0.50;;
40955;SDS011;26687;48.254;11.454;2024-02-21T16:33:55;1.38;;;0.70;;
40955;SDS011;26687;48.254;11.454;2024-02-21T16:36:55;2.03;;;0.80;;
40955;SDS011;26687;48.254;11.454;2024-02-21T16:39:59;2.88;;;0.70;;
40955;SDS011;26687;48.254;11.454;2024-02-21T16:42:59;1.38;;;0.60;;
40955;SDS011;26687;48.254;11.454;2024-02-21T16:46:02;1.02;;;0.73;;
40955;SDS011;26687;48.254;11.454;2024-02-21T16:49:02;1.90;;;0.77;;
40955;SDS011;26687;48.254;11.454;2024-02-21T16:52:02;1.07;;;0.80;;
40955;SDS011;26687;48.254;11.454;2024-02-21T16:55:04;2.03;;;1.15;;
40955;SDS011;26687;48.254;11.454;2024-02-21T16:58:05;1.98;;;0.80;;
40955;SDS011;26687;48.254;11.454;2024-02-21T17:01:06;1.35;;;1.20;;
40955;SDS011;26687;48.254;11.454;2024-02-21T17:04:06;2.28;;;1.23;;
40955;SDS011;26687;48.254;11.454;2024-02-21T17:07:09;1.70;;;1.45;;
40955;SDS011;26687;48.254;11.454;2024-02-21T17:10:09;2.45;;;1.80;;
40955;SDS011;26687;48.254;11.454;2024-02-21T17:13:09;5.50;;;1.87;;
40955;SDS011;26687;48.254;11.454;2024-02-21T17:16:09;2.85;;;2.38;;
40955;SDS011;26687;48.254;11.454;2024-02-21T17:19:10;4.88;;;3.03;;
40955;SDS011;26687;48.254;11.454;2024-02-21T17:22:11;4.55;;;3.03;;
40955;SDS011;26687;48.254;11.454;2024-02-21T17:25:11;3.60;;;3.30;;
40955;SDS011;26687;48.254;11.454;2024-02-21T17:28:12;5.32;;;2.92;;
40955;SDS011;26687;48.254;11.454;2024-02-21T17:31:12;5.13;;;3.45;;
40955;SDS011;26687;48.254;11.454;2024-02-21T17:34:13;3.87;;;3.00;;
40955;SDS011;26687;48.254;11.454;2024-02-21T17:37:13;7.45;;;3.47;;
40955;SDS011;26687;48.254;11.454;2024-02-21T17:40:13;8.32;;;3.90;;
40955;SDS011;26687;48.254;11.454;2024-02-21T17:43:14;10.90;;;3.20;;
40955;SDS011;26687;48.254;11.454;2024-02-21T17:46:14;45.70;;;27.70;;
40955;SDS011;26687;48.254;11.454;2024-02-21T17:49:14;28.73;;;17.17;;
40955;SDS011;26687;48.254;11.454;2024-02-21T17:52:16;11.57;;;4.28;;
40955;SDS011;26687;48.254;11.454;2024-02-21T17:55:16;6.00;;;2.08;;
40955;SDS011;26687;48.254;11.454;2024-02-21T17:58:17;5.93;;;2.50;;